Flight Number: EUR2016 Duration: 1:45
Departure: Barcelona Airport (LEBL) at 14:00 Distance: 592 Nm
Arrival: Munich Int'l (EDDM) at 15:45 Equipment: B737

Weather Information
Barcelona / Aeropuerto, Spain (LEBL) 41-17N 002-04E 6M Oct 19, 2018 - 01:30 PM EDT / 2018.10.19 1730 UTC
Wind: from the NNE (030 degrees) at 5 MPH (4 KT):0
Visibility: greater than 7 mile(s):0
Sky conditions: mostly clear Weather: light rain; Cumulonimbus clouds observed Temperature: 68 F (20 C) Dew Point: 62 F (17 C) Relative Humidity: 82% Pressure (altimeter): 30.00 in. Hg (1016 hPa)
ob: LEBL 191730Z 03004KT 9999 -RA FEW040 20/17 Q1016 TEMPO 4000 SHRA SCT025CB cycle: 17
Sunrise: 06:11 Sunset: 17:01 (UTC)

Munchen, Germany (EDDM) 48-21N 011-47E Oct 19, 2018 - 01:50 PM EDT / 2018.10.19 1750 UTC
Wind: from the N (360 degrees) at 2 MPH (2 KT):0
Visibility: 5 mile(s):0 Temperature: 48 F (9 C) Dew Point: 46 F (8 C) Relative Humidity: 93% Pressure (altimeter): 30.21 in. Hg (1023 hPa)
ob: EDDM 191750Z 36002KT 9000 NSC 09/08 Q1023 NOSIG cycle: 18
Sunrise: 05:42 Sunset: 16:12 (UTC)

TAF:2018/10/19 18:44 TAF EDDM 191700Z 1918/2024 VRB02KT 8000 NSC BECMG 1921/1924 2000 BCFG PROB30 TEMPO 2001/2009 0700 FG BECMG 2009/2011 7000 BKN013 BECMG 2011/2013 34006KT SCT013 BECMG 2016/2018 VRB03KT PROB30 TEMPO 2022/2024 3000 BCFG

Previous Pireps for this route
Date Aircraft Flight time Fuel used Landing rate On time
2012-09-17B73701.5911451-205No
2013-01-14B7371.2080000No
2013-04-08B73701.5716961-64No
2013-07-12B73701.5516516-645No
2013-07-28B7371.35115400No
2013-08-10B73701.466580-302No
2013-09-03B73701.5411400-760No
2014-04-10B73702.1712104-198No
2014-05-05B73701.5713189-402No
2014-06-07B7371.464000No
2014-07-28B73701.4310302-134No
2014-11-30B7371.4881050No
2015-02-08B73702.0311302-341No
2015-02-22B73702.1512937-138Charter
2015-02-27B7372.5878970No
2015-03-02B73702.0411227-108No
2015-03-03B73701.5710539-111No
2015-03-24B73701.5410165-35No
2015-04-01B7371.48135100No
2016-10-03A330-20001.5826954-151Charter
2016-11-14B73702.3212257-461No
2016-11-27B73703.0417026-280No
(pireps marked green are flown by you)

Route map